createdAt,value
2023-02-24T00:02:20.204Z,27.50
2023-02-24T00:04:52.075Z,30.00
2023-02-24T00:07:20.548Z,30.00
2023-02-24T00:09:49.131Z,27.50
2023-02-24T00:12:17.623Z,27.50
2023-02-24T00:14:46.312Z,27.00
2023-02-24T00:17:14.793Z,29.00
2023-02-24T00:19:43.248Z,30.00
2023-02-24T00:22:11.114Z,27.00
2023-02-24T00:24:40.377Z,30.33
2023-02-24T00:27:11.816Z,30.00
2023-02-24T00:29:42.229Z,25.00
2023-02-24T00:32:13.494Z,26.00
2023-02-24T00:34:41.439Z,30.50
2023-02-24T00:37:08.589Z,28.50
2023-02-24T00:39:40.868Z,31.33
2023-02-24T00:42:09.358Z,29.50
2023-02-24T00:44:37.239Z,27.00
2023-02-24T00:47:07.424Z,30.00
2023-02-24T00:49:44.623Z,28.00
2023-02-24T00:52:14.796Z,29.00
2023-02-24T00:54:44.233Z,29.00
2023-02-24T00:57:11.672Z,28.00
2023-02-24T00:59:40.063Z,30.00
2023-02-24T01:02:07.780Z,29.50
2023-02-24T01:04:37.796Z,31.00
2023-02-24T01:07:11.313Z,27.00
2023-02-24T01:09:41.722Z,30.00
2023-02-24T01:12:30.448Z,27.50
2023-02-24T01:14:59.485Z,28.67
2023-02-24T01:17:27.353Z,31.50
2023-02-24T01:20:00.509Z,27.33
2023-02-24T01:22:28.426Z,29.50
2023-02-24T01:24:56.363Z,32.00
2023-02-24T01:27:24.836Z,31.00
2023-02-24T01:29:53.711Z,30.50
2023-02-24T01:32:22.419Z,29.00
2023-02-24T01:34:53.481Z,30.00
2023-02-24T01:37:21.664Z,25.00
2023-02-24T01:39:50.668Z,27.33
2023-02-24T01:42:20.719Z,19.00
2023-02-24T01:44:47.882Z,32.00
2023-02-24T01:47:20.703Z,29.00
2023-02-24T01:49:52.800Z,29.00
2023-02-24T01:52:30.596Z,31.33
2023-02-24T01:55:06.710Z,26.50
2023-02-24T01:57:41.244Z,33.00
2023-02-24T02:00:32.743Z,32.00
2023-02-24T02:03:08.470Z,29.00
2023-02-24T02:05:39.387Z,29.00
2023-02-24T02:08:09.137Z,32.00
2023-02-24T02:10:39.535Z,32.00
2023-02-24T02:13:07.357Z,33.00
2023-02-24T02:15:47.377Z,29.00
2023-02-24T02:18:28.931Z,32.00
2023-02-24T02:20:58.618Z,28.00
2023-02-24T02:23:54.243Z,32.50
2023-02-24T02:26:42.318Z,29.00
2023-02-24T02:29:26.642Z,31.67
2023-02-24T02:32:32.001Z,33.00
2023-02-24T02:35:20.474Z,31.33
2023-02-24T02:38:03.440Z,25.00
2023-02-24T02:41:02.214Z,33.33
2023-02-24T02:43:45.959Z,31.50
2023-02-24T02:46:33.996Z,28.50
2023-02-24T02:49:30.536Z,30.00
2023-02-24T02:52:13.914Z,32.50
2023-02-24T02:55:11.117Z,30.50
2023-02-24T02:57:47.473Z,33.00
2023-02-24T03:00:23.373Z,28.00
2023-02-24T03:02:57.221Z,33.00
2023-02-24T03:05:31.592Z,33.00
2023-02-24T03:08:04.973Z,34.50
2023-02-24T03:10:34.495Z,32.50
2023-02-24T03:13:05.964Z,33.50
2023-02-24T03:15:34.672Z,32.00
2023-02-24T03:18:11.285Z,30.50
2023-02-24T03:20:49.306Z,33.50
2023-02-24T03:23:19.833Z,25.00
2023-02-24T03:25:54.142Z,34.00
2023-02-24T03:28:36.063Z,32.00
2023-02-24T03:31:18.298Z,33.00
2023-02-24T03:34:00.667Z,33.00
2023-02-24T03:36:29.841Z,31.33
2023-02-24T03:39:02.230Z,32.33
2023-02-24T03:41:38.786Z,33.00
2023-02-24T03:44:11.106Z,32.00
2023-02-24T03:46:39.320Z,35.00
2023-02-24T03:49:17.258Z,34.50
2023-02-24T03:52:12.756Z,34.00
2023-02-24T03:55:08.728Z,32.33
2023-02-24T03:57:59.947Z,33.50
2023-02-24T04:00:50.912Z,19.50
2023-02-24T04:03:31.827Z,28.50
2023-02-24T04:06:15.987Z,35.00
2023-02-24T04:09:01.577Z,35.00
2023-02-24T04:11:37.610Z,35.00
2023-02-24T04:14:13.075Z,38.50
2023-02-24T04:17:03.291Z,35.00
2023-02-24T04:19:38.635Z,34.00
2023-02-24T04:22:11.915Z,35.50
2023-02-24T04:24:44.651Z,32.50
2023-02-24T04:27:13.441Z,34.00
2023-02-24T04:29:49.421Z,34.50
2023-02-24T04:32:23.581Z,34.00
2023-02-24T04:34:51.908Z,36.50
2023-02-24T04:37:23.298Z,37.00
2023-02-24T04:39:51.338Z,34.00
2023-02-24T04:42:20.780Z,33.00
2023-02-24T04:44:48.740Z,33.50
2023-02-24T04:47:17.406Z,34.00
2023-02-24T04:49:45.499Z,36.00
2023-02-24T04:52:12.754Z,30.50
2023-02-24T04:54:39.798Z,37.50
2023-02-24T04:57:07.931Z,34.00
2023-02-24T04:59:38.181Z,38.00
2023-02-24T05:02:05.881Z,33.00
2023-02-24T05:04:39.065Z,34.00
2023-02-24T05:07:09.808Z,35.50
2023-02-24T05:09:36.920Z,36.00
2023-02-24T05:12:05.616Z,34.00
2023-02-24T05:14:33.776Z,39.00
2023-02-24T05:17:02.363Z,34.00
2023-02-24T05:19:47.849Z,37.00
2023-02-24T05:22:17.811Z,36.00
2023-02-24T05:24:48.263Z,33.50
2023-02-24T05:27:18.132Z,36.00
2023-02-24T05:29:47.636Z,33.67
2023-02-24T05:32:18.613Z,36.00
2023-02-24T05:34:47.546Z,36.00
2023-02-24T05:37:16.909Z,33.67
2023-02-24T05:39:45.309Z,36.00
2023-02-24T05:42:13.211Z,39.00
2023-02-24T05:44:42.354Z,30.00
2023-02-24T05:47:11.109Z,34.00
2023-02-24T05:49:39.381Z,36.00
2023-02-24T05:52:09.756Z,36.50
2023-02-24T05:54:42.109Z,34.00
2023-02-24T05:57:13.735Z,37.00
2023-02-24T05:59:42.973Z,36.00
2023-02-24T06:02:14.354Z,34.00
2023-02-24T06:04:51.422Z,38.00
2023-02-24T06:07:23.040Z,33.00
2023-02-24T06:09:58.331Z,36.00
2023-02-24T06:12:29.755Z,39.00
2023-02-24T06:14:58.461Z,37.00
2023-02-24T06:17:26.544Z,39.00
2023-02-24T06:19:54.914Z,30.50
2023-02-24T06:22:25.377Z,35.00
2023-02-24T06:24:55.399Z,36.00
2023-02-24T06:27:25.209Z,36.50
2023-02-24T06:29:54.549Z,37.00
2023-02-24T06:32:25.293Z,39.00
2023-02-24T06:34:54.144Z,37.00
2023-02-24T06:37:23.431Z,31.67
2023-02-24T06:39:52.167Z,35.33
2023-02-24T06:42:19.255Z,39.50
2023-02-24T06:44:47.635Z,39.00
2023-02-24T06:47:18.085Z,30.00
2023-02-24T06:49:45.424Z,36.50
2023-02-24T06:52:18.760Z,39.50
2023-02-24T06:54:52.561Z,37.00
2023-02-24T06:57:21.010Z,35.00
2023-02-24T06:59:49.270Z,39.00
2023-02-24T07:02:17.745Z,35.00
2023-02-24T07:04:47.705Z,39.33
2023-02-24T07:07:17.629Z,40.00
2023-02-24T07:09:45.809Z,36.00
2023-02-24T07:12:13.684Z,36.00
2023-02-24T07:14:41.596Z,42.00
2023-02-24T07:17:08.903Z,40.00
2023-02-24T07:19:36.949Z,39.00
2023-02-24T07:22:04.150Z,36.50
2023-02-24T07:24:33.818Z,40.00
2023-02-24T07:27:22.894Z,39.00
2023-02-24T07:29:54.351Z,39.00
2023-02-24T07:32:23.292Z,40.00
2023-02-24T07:34:50.447Z,38.00
2023-02-24T07:37:20.440Z,40.00
2023-02-24T07:39:47.594Z,36.50
2023-02-24T07:42:16.158Z,39.00
2023-02-24T07:44:46.682Z,40.00
2023-02-24T07:47:16.277Z,40.00
2023-02-24T07:49:45.640Z,40.00
2023-02-24T07:52:12.711Z,39.00
2023-02-24T07:54:43.899Z,39.50
2023-02-24T07:57:14.409Z,40.00
2023-02-24T07:59:45.520Z,40.00
2023-02-24T08:02:14.086Z,40.50
2023-02-24T08:04:44.511Z,39.00
2023-02-24T08:07:14.747Z,41.50
2023-02-24T08:09:46.234Z,38.00
2023-02-24T08:12:22.007Z,43.00
2023-02-24T08:14:53.823Z,40.00
2023-02-24T08:17:26.934Z,41.00
2023-02-24T08:20:14.362Z,41.00
2023-02-24T08:22:47.304Z,41.50
2023-02-24T08:25:19.149Z,42.50
2023-02-24T08:28:07.346Z,41.00
2023-02-24T08:30:40.062Z,43.00
2023-02-24T08:33:16.101Z,38.33
2023-02-24T08:35:45.418Z,41.00
2023-02-24T08:38:17.045Z,41.50
2023-02-24T08:40:51.814Z,41.00
2023-02-24T08:43:40.416Z,42.50
2023-02-24T08:46:21.559Z,42.50
2023-02-24T08:48:56.499Z,41.00
2023-02-24T08:51:30.664Z,45.50
2023-02-24T08:54:01.126Z,42.50
2023-02-24T08:56:34.496Z,38.00
2023-02-24T08:59:06.241Z,45.33
2023-02-24T09:01:39.458Z,42.00
2023-02-24T09:04:11.619Z,45.00
2023-02-24T09:07:10.738Z,48.67
2023-02-24T09:09:42.453Z,50.33
2023-02-24T09:12:22.166Z,49.00
2023-02-24T09:14:56.647Z,44.33
2023-02-24T09:17:46.209Z,45.00
2023-02-24T09:20:27.449Z,45.00
2023-02-24T09:23:03.389Z,43.67
2023-02-24T09:25:44.749Z,45.67
2023-02-24T09:28:18.238Z,43.00
2023-02-24T09:30:59.552Z,44.33
2023-02-24T09:33:42.230Z,44.00
2023-02-24T09:36:28.194Z,42.33
2023-02-24T09:38:59.889Z,40.67
2023-02-24T09:41:53.769Z,43.00
2023-02-24T09:44:33.521Z,41.33
2023-02-24T09:47:20.068Z,43.67
2023-02-24T09:49:59.340Z,41.00
2023-02-24T09:53:02.923Z,42.67
2023-02-24T09:56:05.458Z,40.00
2023-02-24T09:58:53.392Z,46.67
2023-02-24T10:01:34.174Z,43.67
2023-02-24T10:04:21.246Z,40.67
2023-02-24T10:07:03.702Z,44.00
2023-02-24T10:09:35.095Z,42.67
2023-02-24T10:12:18.904Z,42.33
2023-02-24T10:15:16.658Z,44.33
2023-02-24T10:17:57.383Z,40.00
2023-02-24T10:20:39.820Z,42.33
2023-02-24T10:23:35.965Z,42.33
2023-02-24T10:26:07.740Z,39.33
2023-02-24T10:28:40.345Z,39.33
2023-02-24T10:31:25.669Z,39.00
2023-02-24T10:34:06.357Z,46.00
2023-02-24T10:36:35.962Z,39.00
2023-02-24T10:39:25.897Z,36.00
2023-02-24T10:42:16.018Z,36.50
2023-02-24T10:45:01.299Z,34.33
2023-02-24T10:47:31.830Z,34.00
2023-02-24T10:50:02.609Z,37.00
2023-02-24T10:52:51.341Z,36.33
2023-02-24T10:55:45.905Z,36.33
2023-02-24T10:58:51.411Z,34.33
2023-02-24T11:01:43.667Z,33.33
2023-02-24T11:04:28.012Z,31.67
2023-02-24T11:07:09.930Z,33.00
2023-02-24T11:09:52.821Z,29.67
2023-02-24T11:12:42.827Z,30.00
2023-02-24T11:15:45.102Z,28.00
2023-02-24T11:18:23.466Z,26.67
2023-02-24T11:21:06.564Z,23.00
2023-02-24T11:23:36.100Z,26.67
2023-02-24T11:26:20.976Z,27.33
2023-02-24T11:29:11.159Z,27.33
2023-02-24T11:31:44.628Z,27.67
2023-02-24T11:34:28.963Z,25.00
2023-02-24T11:37:43.395Z,26.00
2023-02-24T11:40:19.075Z,19.67
2023-02-24T11:43:03.442Z,26.00
2023-02-24T11:45:38.306Z,22.00
2023-02-24T11:48:17.845Z,23.67
2023-02-24T11:51:23.789Z,23.67
2023-02-24T11:53:58.871Z,21.67
2023-02-24T11:56:43.069Z,25.67
2023-02-24T12:10:52.852Z,16.00
2023-02-24T12:16:23.970Z,14.00
2023-02-24T12:19:57.613Z,19.00
2023-02-24T12:38:04.399Z,14.67
2023-02-24T12:40:48.215Z,12.50
2023-02-24T12:43:30.964Z,15.00
2023-02-24T12:46:01.414Z,12.00
2023-02-24T12:48:39.502Z,15.67
2023-02-24T12:51:22.413Z,11.33
2023-02-24T12:54:05.228Z,11.00
2023-02-24T12:56:51.753Z,11.00
2023-02-24T12:59:25.600Z,12.00
2023-02-24T13:02:01.909Z,10.00
2023-02-24T13:04:35.849Z,12.33
2023-02-24T13:07:28.952Z,14.50
2023-02-24T13:10:32.055Z,14.00
2023-02-24T13:13:06.555Z,14.50
2023-02-24T13:15:33.515Z,12.50
2023-02-24T13:18:01.382Z,15.00
2023-02-24T13:20:33.849Z,15.00
2023-02-24T13:23:03.725Z,14.50
2023-02-24T13:25:39.007Z,15.00
2023-02-24T13:28:24.542Z,16.50
2023-02-24T13:31:05.644Z,16.33
2023-02-24T13:33:37.072Z,14.00
2023-02-24T13:36:22.037Z,7.00
2023-02-24T13:38:52.083Z,17.33
2023-02-24T13:41:21.809Z,11.00
2023-02-24T13:43:59.855Z,16.00
2023-02-24T13:47:11.857Z,16.33
2023-02-24T13:49:58.788Z,14.50
2023-02-24T13:53:08.115Z,16.50
2023-02-24T13:56:09.880Z,15.00
2023-02-24T13:58:42.809Z,14.50
2023-02-24T14:01:14.310Z,9.33
2023-02-24T14:03:50.674Z,15.67
2023-02-24T14:06:24.809Z,15.00
2023-02-24T14:08:59.577Z,12.33
2023-02-24T14:11:31.535Z,13.00
2023-02-24T14:13:59.651Z,14.50
2023-02-24T14:16:32.639Z,16.00
2023-02-24T14:19:02.064Z,14.50
2023-02-24T14:21:32.738Z,14.67
2023-02-24T14:24:10.799Z,15.00
2023-02-24T14:26:59.613Z,17.00
2023-02-24T14:29:32.178Z,16.00
2023-02-24T14:32:00.021Z,14.50
2023-02-24T14:34:31.531Z,15.00
2023-02-24T14:37:02.622Z,15.00
2023-02-24T14:39:32.594Z,15.00
2023-02-24T14:42:08.741Z,14.00
2023-02-24T14:44:46.422Z,17.00
2023-02-24T14:47:16.115Z,17.00
2023-02-24T14:50:05.208Z,19.00
2023-02-24T14:52:39.843Z,16.00
2023-02-24T14:55:22.221Z,13.50
2023-02-24T14:58:01.960Z,14.33
2023-02-24T15:00:36.925Z,16.50
2023-02-24T15:03:21.348Z,19.00
2023-02-24T15:05:52.398Z,14.33
2023-02-24T15:08:41.691Z,18.00
2023-02-24T15:11:15.953Z,21.00
2023-02-24T15:13:51.696Z,20.00
2023-02-24T15:16:33.428Z,21.67
2023-02-24T15:19:01.871Z,13.00
2023-02-24T15:21:41.084Z,14.00
2023-02-24T15:24:26.647Z,18.00
2023-02-24T15:26:57.110Z,19.33
2023-02-24T15:29:28.010Z,16.50
2023-02-24T15:31:57.526Z,18.50
2023-02-24T15:34:37.840Z,17.33
2023-02-24T15:37:32.959Z,18.67
2023-02-24T15:40:23.704Z,16.00
2023-02-24T15:42:55.042Z,16.50
2023-02-24T15:45:26.729Z,20.67
2023-02-24T15:47:57.891Z,20.00
2023-02-24T15:50:26.619Z,18.00
2023-02-24T15:52:57.945Z,19.67
2023-02-24T15:55:28.818Z,24.00
2023-02-24T15:58:05.284Z,26.00
2023-02-24T16:00:34.084Z,24.00
2023-02-24T16:03:02.564Z,25.33
2023-02-24T16:05:31.203Z,28.00
2023-02-24T16:07:59.947Z,26.00
2023-02-24T16:10:30.250Z,26.00
2023-02-24T16:13:01.582Z,26.33
2023-02-24T16:15:39.782Z,32.00
2023-02-24T16:18:20.327Z,28.00
2023-02-24T16:20:55.296Z,29.33
2023-02-24T16:23:25.991Z,29.00
2023-02-24T16:25:58.249Z,28.00
2023-02-24T16:28:27.416Z,29.00
2023-02-24T16:30:56.246Z,28.67
2023-02-24T16:33:25.693Z,29.00
2023-02-24T16:35:54.825Z,29.67
2023-02-24T16:38:26.753Z,27.67
2023-02-24T16:40:56.113Z,27.67
2023-02-24T16:43:24.847Z,27.33
2023-02-24T16:45:55.727Z,27.00
2023-02-24T16:48:26.394Z,31.67
2023-02-24T16:50:55.054Z,28.00
2023-02-24T16:53:25.041Z,28.00
2023-02-24T16:55:53.373Z,24.00
2023-02-24T16:58:23.670Z,29.00
2023-02-24T17:00:57.357Z,29.00
2023-02-24T17:03:28.886Z,29.33
2023-02-24T17:05:58.243Z,28.00
2023-02-24T17:08:26.977Z,30.00
2023-02-24T17:10:56.394Z,33.00
2023-02-24T17:13:24.335Z,30.67
2023-02-24T17:15:55.588Z,29.00
2023-02-24T17:18:25.454Z,28.00
2023-02-24T17:20:54.794Z,28.33
2023-02-24T17:23:23.519Z,29.00
2023-02-24T17:25:54.401Z,27.00
2023-02-24T17:28:23.778Z,32.00
2023-02-24T17:30:52.636Z,32.00
2023-02-24T17:33:20.454Z,32.00
2023-02-24T17:35:49.517Z,34.00
2023-02-24T17:38:20.595Z,28.67
2023-02-24T17:40:49.295Z,32.00
2023-02-24T17:43:19.255Z,26.33
2023-02-24T17:45:48.374Z,30.00
2023-02-24T17:48:18.666Z,28.67
2023-02-24T17:50:47.290Z,29.00
2023-02-24T17:53:16.573Z,34.00
2023-02-24T17:56:01.542Z,39.00
2023-02-24T17:58:31.047Z,24.67
2023-02-24T18:01:02.347Z,27.33
2023-02-24T18:03:32.218Z,24.00
2023-02-24T18:06:07.721Z,25.00
2023-02-24T18:08:38.246Z,21.67
2023-02-24T18:11:07.743Z,24.67
2023-02-24T18:13:37.294Z,25.00
2023-02-24T18:16:11.707Z,27.00
2023-02-24T18:18:40.811Z,28.67
2023-02-24T18:21:09.570Z,25.00
2023-02-24T18:23:41.043Z,20.00
2023-02-24T18:26:11.016Z,27.00
2023-02-24T18:28:40.249Z,19.00
2023-02-24T18:31:18.660Z,27.67
2023-02-24T18:33:47.584Z,26.00
2023-02-24T18:36:16.530Z,26.00
2023-02-24T18:38:45.629Z,27.67
2023-02-24T18:41:19.453Z,26.00
2023-02-24T18:43:49.987Z,26.00
2023-02-24T18:46:20.061Z,27.67
2023-02-24T18:48:50.430Z,24.33
2023-02-24T18:51:22.503Z,22.50
2023-02-24T18:53:52.874Z,24.00
2023-02-24T18:56:27.749Z,27.33
2023-02-24T18:58:58.497Z,28.00
2023-02-24T19:01:38.831Z,18.33
2023-02-24T19:04:09.289Z,26.00
2023-02-24T19:06:38.211Z,25.33
2023-02-24T19:09:11.219Z,26.67
2023-02-24T19:11:41.110Z,28.33
2023-02-24T19:14:12.097Z,26.33
2023-02-24T19:16:41.216Z,25.00
2023-02-24T19:19:13.985Z,25.67
2023-02-24T19:21:45.802Z,26.33
2023-02-24T19:24:14.569Z,25.00
2023-02-24T19:26:44.511Z,25.00
2023-02-24T19:29:12.505Z,24.00
2023-02-24T19:31:41.334Z,26.67
2023-02-24T19:34:15.415Z,24.67
2023-02-24T19:36:44.090Z,21.67
2023-02-24T19:39:14.462Z,22.00
2023-02-24T19:41:41.499Z,21.00
2023-02-24T19:44:10.491Z,22.00
2023-02-24T19:46:39.153Z,26.00
2023-02-24T19:49:07.996Z,25.67
2023-02-24T19:51:35.728Z,18.67
2023-02-24T19:54:06.267Z,24.33
2023-02-24T19:56:37.308Z,29.00
2023-02-24T19:59:08.089Z,21.00
2023-02-24T20:01:35.269Z,16.00
2023-02-24T20:04:04.818Z,23.00
2023-02-24T20:06:39.080Z,22.00
2023-02-24T20:09:16.588Z,22.00
2023-02-24T20:11:45.434Z,23.67
2023-02-24T20:14:16.599Z,26.33
2023-02-24T20:16:45.622Z,26.33
2023-02-24T20:19:15.586Z,29.00
2023-02-24T20:21:43.658Z,26.00
2023-02-24T20:24:15.356Z,26.33
2023-02-24T20:26:48.078Z,29.33
2023-02-24T20:29:18.690Z,26.00
2023-02-24T20:31:47.883Z,26.00
2023-02-24T20:34:16.981Z,17.00
2023-02-24T20:36:45.968Z,26.00
2023-02-24T20:39:14.710Z,29.00
2023-02-24T20:41:43.065Z,8.67
2023-02-24T20:44:12.246Z,29.00
2023-02-24T20:46:41.111Z,29.00
2023-02-24T20:49:12.715Z,26.33
2023-02-24T20:51:41.834Z,32.00
2023-02-24T20:54:12.349Z,31.00
2023-02-24T20:56:42.836Z,28.50
2023-02-24T20:59:18.668Z,23.00
2023-02-24T21:01:48.958Z,31.00
2023-02-24T21:04:21.106Z,31.00
2023-02-24T21:06:51.542Z,29.33
2023-02-24T21:09:20.432Z,30.33
2023-02-24T21:11:49.669Z,29.00
2023-02-24T21:14:18.604Z,30.00
2023-02-24T21:16:47.272Z,32.00
2023-02-24T21:19:14.854Z,17.00
2023-02-24T21:21:42.694Z,32.00
2023-02-24T21:24:11.530Z,30.67
2023-02-24T21:26:39.994Z,33.00
2023-02-24T21:29:07.106Z,20.00
2023-02-24T21:31:36.000Z,30.00
2023-02-24T21:34:03.871Z,33.00
2023-02-24T21:36:31.800Z,30.00
2023-02-24T21:39:01.074Z,32.67
2023-02-24T21:41:29.426Z,32.50
2023-02-24T21:44:00.807Z,34.33
2023-02-24T21:46:29.677Z,28.33
2023-02-24T21:48:59.022Z,32.67
2023-02-24T21:51:29.422Z,31.67
2023-02-24T21:53:57.969Z,28.00
2023-02-24T21:56:30.149Z,28.67
2023-02-24T21:59:01.700Z,32.33
2023-02-24T22:01:44.863Z,32.33
2023-02-24T22:04:17.114Z,30.50
2023-02-24T22:06:45.972Z,33.00
2023-02-24T22:09:20.057Z,27.33
2023-02-24T22:11:48.886Z,21.00
2023-02-24T22:14:17.776Z,31.00
2023-02-24T22:16:45.770Z,29.50
2023-02-24T22:19:14.775Z,30.00
2023-02-24T22:21:43.366Z,27.50
2023-02-24T22:24:14.452Z,31.00
2023-02-24T22:26:42.572Z,29.00
2023-02-24T22:29:10.775Z,31.00
2023-02-24T22:31:39.718Z,25.50
2023-02-24T22:34:08.870Z,28.50
2023-02-24T22:36:38.097Z,30.00
2023-02-24T22:39:06.989Z,29.00
2023-02-24T22:41:37.183Z,24.67
2023-02-24T22:44:08.740Z,31.00
2023-02-24T22:46:38.273Z,27.00
2023-02-24T22:49:06.853Z,29.00
2023-02-24T22:51:35.209Z,27.00
2023-02-24T22:54:05.207Z,29.33
2023-02-24T22:56:32.351Z,29.00
2023-02-24T22:59:00.924Z,28.50
2023-02-24T23:01:35.102Z,28.50
2023-02-24T23:04:06.055Z,30.00
2023-02-24T23:06:34.819Z,27.67
2023-02-24T23:09:03.845Z,30.00
2023-02-24T23:11:35.098Z,30.00
2023-02-24T23:14:06.108Z,31.50
2023-02-24T23:16:35.190Z,29.00
2023-02-24T23:19:06.619Z,26.00
2023-02-24T23:21:40.569Z,19.50
2023-02-24T23:24:11.034Z,29.00
2023-02-24T23:26:54.060Z,28.00
2023-02-24T23:29:23.456Z,29.00
2023-02-24T23:31:53.194Z,33.33
2023-02-24T23:34:22.211Z,28.00
2023-02-24T23:36:50.223Z,28.00
2023-02-24T23:39:23.186Z,28.00
2023-02-24T23:41:56.871Z,29.00
2023-02-24T23:44:26.298Z,26.00
2023-02-24T23:46:53.396Z,29.00
2023-02-24T23:49:21.445Z,29.00
2023-02-24T23:51:50.300Z,29.00
2023-02-24T23:54:18.420Z,26.00
2023-02-24T23:56:45.801Z,22.00
2023-02-24T23:59:12.857Z,17.50
